sensor_id;sensor_type;location;lat;lon;timestamp;P1;durP1;ratioP1;P2;durP2;ratioP2
75634;SDS011;64227;48.724;9.104;2023-02-15T00:00:10;11.80;;;6.28;;
75634;SDS011;64227;48.724;9.104;2023-02-15T00:02:36;13.82;;;6.00;;
75634;SDS011;64227;48.724;9.104;2023-02-15T00:05:01;9.80;;;5.50;;
75634;SDS011;64227;48.724;9.104;2023-02-15T00:07:27;10.60;;;6.07;;
75634;SDS011;64227;48.724;9.104;2023-02-15T00:09:52;11.57;;;5.47;;
75634;SDS011;64227;48.724;9.104;2023-02-15T00:12:17;14.97;;;6.37;;
75634;SDS011;64227;48.724;9.104;2023-02-15T00:14:43;11.75;;;5.72;;
75634;SDS011;64227;48.724;9.104;2023-02-15T00:17:09;9.85;;;4.93;;
75634;SDS011;64227;48.724;9.104;2023-02-15T00:19:34;10.98;;;5.18;;
75634;SDS011;64227;48.724;9.104;2023-02-15T00:22:00;5.90;;;3.60;;
75634;SDS011;64227;48.724;9.104;2023-02-15T00:24:25;7.93;;;3.88;;
75634;SDS011;64227;48.724;9.104;2023-02-15T00:26:51;7.82;;;4.63;;
75634;SDS011;64227;48.724;9.104;2023-02-15T00:29:17;9.13;;;4.05;;
75634;SDS011;64227;48.724;9.104;2023-02-15T00:31:43;7.57;;;3.85;;
75634;SDS011;64227;48.724;9.104;2023-02-15T00:34:16;8.60;;;3.90;;
75634;SDS011;64227;48.724;9.104;2023-02-15T00:36:46;10.75;;;5.10;;
75634;SDS011;64227;48.724;9.104;2023-02-15T00:39:11;10.00;;;4.20;;
75634;SDS011;64227;48.724;9.104;2023-02-15T00:41:37;10.48;;;5.15;;
75634;SDS011;64227;48.724;9.104;2023-02-15T00:44:03;10.85;;;5.47;;
75634;SDS011;64227;48.724;9.104;2023-02-15T00:46:28;12.70;;;4.80;;
75634;SDS011;64227;48.724;9.104;2023-02-15T00:48:54;9.73;;;5.28;;
75634;SDS011;64227;48.724;9.104;2023-02-15T00:51:19;10.60;;;5.03;;
75634;SDS011;64227;48.724;9.104;2023-02-15T00:53:45;8.48;;;4.55;;
75634;SDS011;64227;48.724;9.104;2023-02-15T00:56:11;9.48;;;4.45;;
75634;SDS011;64227;48.724;9.104;2023-02-15T00:58:36;10.43;;;4.53;;
75634;SDS011;64227;48.724;9.104;2023-02-15T01:01:02;10.52;;;5.15;;
75634;SDS011;64227;48.724;9.104;2023-02-15T01:03:30;11.40;;;5.18;;
75634;SDS011;64227;48.724;9.104;2023-02-15T01:05:55;11.17;;;5.20;;
75634;SDS011;64227;48.724;9.104;2023-02-15T01:08:20;10.40;;;5.13;;
75634;SDS011;64227;48.724;9.104;2023-02-15T01:10:46;9.07;;;5.53;;
75634;SDS011;64227;48.724;9.104;2023-02-15T01:13:12;13.40;;;5.85;;
75634;SDS011;64227;48.724;9.104;2023-02-15T01:15:38;11.40;;;5.28;;
75634;SDS011;64227;48.724;9.104;2023-02-15T01:18:03;12.23;;;5.57;;
75634;SDS011;64227;48.724;9.104;2023-02-15T01:20:29;12.63;;;5.07;;
75634;SDS011;64227;48.724;9.104;2023-02-15T01:22:56;10.93;;;4.85;;
75634;SDS011;64227;48.724;9.104;2023-02-15T01:25:22;8.82;;;4.50;;
75634;SDS011;64227;48.724;9.104;2023-02-15T01:27:48;7.03;;;4.13;;
75634;SDS011;64227;48.724;9.104;2023-02-15T01:30:14;8.82;;;4.72;;
75634;SDS011;64227;48.724;9.104;2023-02-15T01:32:40;6.57;;;4.03;;
75634;SDS011;64227;48.724;9.104;2023-02-15T01:35:06;6.70;;;3.63;;
75634;SDS011;64227;48.724;9.104;2023-02-15T01:37:32;7.18;;;3.60;;
75634;SDS011;64227;48.724;9.104;2023-02-15T01:39:57;10.00;;;4.65;;
75634;SDS011;64227;48.724;9.104;2023-02-15T01:42:25;6.13;;;3.22;;
75634;SDS011;64227;48.724;9.104;2023-02-15T01:44:53;10.10;;;4.68;;
75634;SDS011;64227;48.724;9.104;2023-02-15T01:47:23;11.65;;;4.50;;
75634;SDS011;64227;48.724;9.104;2023-02-15T01:50:14;9.40;;;4.38;;
75634;SDS011;64227;48.724;9.104;2023-02-15T01:52:52;8.35;;;4.78;;
75634;SDS011;64227;48.724;9.104;2023-02-15T01:55:21;7.07;;;3.85;;
75634;SDS011;64227;48.724;9.104;2023-02-15T01:57:47;10.27;;;5.13;;
75634;SDS011;64227;48.724;9.104;2023-02-15T02:00:12;8.90;;;4.60;;
75634;SDS011;64227;48.724;9.104;2023-02-15T02:02:39;8.35;;;4.68;;
75634;SDS011;64227;48.724;9.104;2023-02-15T02:05:06;9.57;;;4.93;;
75634;SDS011;64227;48.724;9.104;2023-02-15T02:07:36;10.48;;;4.35;;
75634;SDS011;64227;48.724;9.104;2023-02-15T02:10:04;8.50;;;4.25;;
75634;SDS011;64227;48.724;9.104;2023-02-15T02:12:30;9.55;;;4.50;;
75634;SDS011;64227;48.724;9.104;2023-02-15T02:14:56;7.95;;;3.92;;
75634;SDS011;64227;48.724;9.104;2023-02-15T02:20:18;10.05;;;4.13;;
75634;SDS011;64227;48.724;9.104;2023-02-15T02:29:26;9.77;;;4.30;;
75634;SDS011;64227;48.724;9.104;2023-02-15T02:31:48;8.88;;;3.67;;
75634;SDS011;64227;48.724;9.104;2023-02-15T02:34:33;11.52;;;5.00;;
75634;SDS011;64227;48.724;9.104;2023-02-15T02:39:47;7.15;;;3.92;;
75634;SDS011;64227;48.724;9.104;2023-02-15T02:42:46;7.63;;;4.13;;
75634;SDS011;64227;48.724;9.104;2023-02-15T02:45:13;7.63;;;4.13;;
75634;SDS011;64227;48.724;9.104;2023-02-15T02:47:46;8.32;;;4.25;;
75634;SDS011;64227;48.724;9.104;2023-02-15T02:50:15;6.22;;;3.38;;
75634;SDS011;64227;48.724;9.104;2023-02-15T02:52:47;7.30;;;3.58;;
75634;SDS011;64227;48.724;9.104;2023-02-15T02:57:57;8.82;;;4.07;;
75634;SDS011;64227;48.724;9.104;2023-02-15T03:00:24;6.47;;;3.80;;
75634;SDS011;64227;48.724;9.104;2023-02-15T03:02:52;9.80;;;4.22;;
75634;SDS011;64227;48.724;9.104;2023-02-15T03:05:23;8.05;;;4.00;;
75634;SDS011;64227;48.724;9.104;2023-02-15T03:07:51;9.65;;;4.22;;
75634;SDS011;64227;48.724;9.104;2023-02-15T03:10:18;8.43;;;4.57;;
75634;SDS011;64227;48.724;9.104;2023-02-15T03:12:46;8.70;;;4.75;;
75634;SDS011;64227;48.724;9.104;2023-02-15T03:15:22;6.45;;;3.55;;
75634;SDS011;64227;48.724;9.104;2023-02-15T03:17:51;7.00;;;3.67;;
75634;SDS011;64227;48.724;9.104;2023-02-15T03:20:25;7.40;;;4.13;;
75634;SDS011;64227;48.724;9.104;2023-02-15T03:22:55;6.63;;;3.40;;
75634;SDS011;64227;48.724;9.104;2023-02-15T03:25:31;6.05;;;3.42;;
75634;SDS011;64227;48.724;9.104;2023-02-15T03:28:00;7.75;;;2.90;;
75634;SDS011;64227;48.724;9.104;2023-02-15T03:30:28;10.18;;;3.90;;
75634;SDS011;64227;48.724;9.104;2023-02-15T03:32:54;8.70;;;3.97;;
75634;SDS011;64227;48.724;9.104;2023-02-15T03:35:22;9.25;;;4.13;;
75634;SDS011;64227;48.724;9.104;2023-02-15T03:37:54;10.30;;;4.78;;
75634;SDS011;64227;48.724;9.104;2023-02-15T03:40:23;7.80;;;4.25;;
75634;SDS011;64227;48.724;9.104;2023-02-15T03:43:36;8.35;;;4.25;;
75634;SDS011;64227;48.724;9.104;2023-02-15T03:46:25;7.88;;;3.83;;
75634;SDS011;64227;48.724;9.104;2023-02-15T03:48:56;10.00;;;5.20;;
75634;SDS011;64227;48.724;9.104;2023-02-15T03:51:26;10.93;;;5.03;;
75634;SDS011;64227;48.724;9.104;2023-02-15T03:54:00;9.02;;;4.30;;
75634;SDS011;64227;48.724;9.104;2023-02-15T03:56:34;7.75;;;4.22;;
75634;SDS011;64227;48.724;9.104;2023-02-15T03:59:04;6.18;;;3.78;;
75634;SDS011;64227;48.724;9.104;2023-02-15T04:01:58;10.20;;;4.45;;
75634;SDS011;64227;48.724;9.104;2023-02-15T04:04:39;9.68;;;4.35;;
75634;SDS011;64227;48.724;9.104;2023-02-15T04:07:12;8.85;;;5.13;;
75634;SDS011;64227;48.724;9.104;2023-02-15T04:09:38;8.55;;;4.25;;
75634;SDS011;64227;48.724;9.104;2023-02-15T04:12:22;12.10;;;6.25;;
75634;SDS011;64227;48.724;9.104;2023-02-15T04:14:47;11.63;;;4.72;;
75634;SDS011;64227;48.724;9.104;2023-02-15T04:17:31;9.18;;;3.38;;
75634;SDS011;64227;48.724;9.104;2023-02-15T04:19:56;13.20;;;4.78;;
75634;SDS011;64227;48.724;9.104;2023-02-15T04:25:07;9.93;;;4.55;;
75634;SDS011;64227;48.724;9.104;2023-02-15T04:27:40;6.72;;;3.83;;
75634;SDS011;64227;48.724;9.104;2023-02-15T04:30:07;6.60;;;3.20;;
75634;SDS011;64227;48.724;9.104;2023-02-15T04:32:33;9.38;;;3.92;;
75634;SDS011;64227;48.724;9.104;2023-02-15T04:34:59;8.10;;;4.60;;
75634;SDS011;64227;48.724;9.104;2023-02-15T04:37:24;7.93;;;3.67;;
75634;SDS011;64227;48.724;9.104;2023-02-15T04:39:50;9.25;;;4.25;;
75634;SDS011;64227;48.724;9.104;2023-02-15T04:42:15;9.10;;;4.88;;
75634;SDS011;64227;48.724;9.104;2023-02-15T04:44:41;8.75;;;4.25;;
75634;SDS011;64227;48.724;9.104;2023-02-15T04:47:06;8.98;;;4.63;;
75634;SDS011;64227;48.724;9.104;2023-02-15T04:49:31;10.50;;;4.30;;
75634;SDS011;64227;48.724;9.104;2023-02-15T04:51:57;10.07;;;4.10;;
75634;SDS011;64227;48.724;9.104;2023-02-15T04:54:22;9.82;;;4.13;;
75634;SDS011;64227;48.724;9.104;2023-02-15T04:56:47;7.05;;;3.83;;
75634;SDS011;64227;48.724;9.104;2023-02-15T04:59:13;6.50;;;3.60;;
75634;SDS011;64227;48.724;9.104;2023-02-15T05:01:38;7.80;;;4.40;;
75634;SDS011;64227;48.724;9.104;2023-02-15T05:04:04;8.37;;;4.17;;
75634;SDS011;64227;48.724;9.104;2023-02-15T05:06:29;7.18;;;4.35;;
75634;SDS011;64227;48.724;9.104;2023-02-15T05:08:55;7.05;;;4.00;;
75634;SDS011;64227;48.724;9.104;2023-02-15T05:11:20;9.23;;;4.50;;
75634;SDS011;64227;48.724;9.104;2023-02-15T05:13:45;8.52;;;4.20;;
75634;SDS011;64227;48.724;9.104;2023-02-15T05:16:11;8.23;;;4.07;;
75634;SDS011;64227;48.724;9.104;2023-02-15T05:18:36;7.95;;;4.80;;
75634;SDS011;64227;48.724;9.104;2023-02-15T05:21:01;7.15;;;4.00;;
75634;SDS011;64227;48.724;9.104;2023-02-15T05:23:27;7.18;;;3.97;;
75634;SDS011;64227;48.724;9.104;2023-02-15T05:25:52;9.93;;;4.82;;
75634;SDS011;64227;48.724;9.104;2023-02-15T05:28:37;9.02;;;3.95;;
75634;SDS011;64227;48.724;9.104;2023-02-15T05:31:07;8.57;;;4.15;;
75634;SDS011;64227;48.724;9.104;2023-02-15T05:33:35;9.63;;;4.40;;
75634;SDS011;64227;48.724;9.104;2023-02-15T05:36:00;11.50;;;4.93;;
75634;SDS011;64227;48.724;9.104;2023-02-15T05:38:25;10.88;;;5.00;;
75634;SDS011;64227;48.724;9.104;2023-02-15T05:40:51;7.32;;;3.67;;
75634;SDS011;64227;48.724;9.104;2023-02-15T05:43:16;8.32;;;4.25;;
75634;SDS011;64227;48.724;9.104;2023-02-15T05:45:52;5.70;;;3.15;;
75634;SDS011;64227;48.724;9.104;2023-02-15T05:48:19;8.50;;;3.65;;
75634;SDS011;64227;48.724;9.104;2023-02-15T05:50:45;7.68;;;4.40;;
75634;SDS011;64227;48.724;9.104;2023-02-15T05:53:10;8.82;;;5.18;;
75634;SDS011;64227;48.724;9.104;2023-02-15T05:55:39;10.05;;;4.55;;
75634;SDS011;64227;48.724;9.104;2023-02-15T05:58:05;8.98;;;4.45;;
75634;SDS011;64227;48.724;9.104;2023-02-15T06:00:31;14.40;;;6.53;;
75634;SDS011;64227;48.724;9.104;2023-02-15T06:02:56;15.60;;;7.03;;
75634;SDS011;64227;48.724;9.104;2023-02-15T06:05:21;14.55;;;6.40;;
75634;SDS011;64227;48.724;9.104;2023-02-15T06:07:47;10.05;;;6.10;;
75634;SDS011;64227;48.724;9.104;2023-02-15T06:10:12;15.68;;;6.53;;
75634;SDS011;64227;48.724;9.104;2023-02-15T06:12:38;17.70;;;7.43;;
75634;SDS011;64227;48.724;9.104;2023-02-15T06:15:03;18.25;;;8.48;;
75634;SDS011;64227;48.724;9.104;2023-02-15T06:17:29;13.52;;;7.63;;
75634;SDS011;64227;48.724;9.104;2023-02-15T06:19:54;13.38;;;7.20;;
75634;SDS011;64227;48.724;9.104;2023-02-15T06:22:20;9.82;;;5.20;;
75634;SDS011;64227;48.724;9.104;2023-02-15T06:24:45;10.77;;;5.05;;
75634;SDS011;64227;48.724;9.104;2023-02-15T06:27:11;10.90;;;5.18;;
75634;SDS011;64227;48.724;9.104;2023-02-15T06:29:36;10.60;;;5.03;;
75634;SDS011;64227;48.724;9.104;2023-02-15T06:32:02;10.38;;;4.43;;
75634;SDS011;64227;48.724;9.104;2023-02-15T06:34:28;10.95;;;5.00;;
75634;SDS011;64227;48.724;9.104;2023-02-15T06:36:53;9.97;;;4.97;;
75634;SDS011;64227;48.724;9.104;2023-02-15T06:39:18;8.38;;;4.28;;
75634;SDS011;64227;48.724;9.104;2023-02-15T06:41:44;11.38;;;5.53;;
75634;SDS011;64227;48.724;9.104;2023-02-15T06:44:09;9.53;;;4.90;;
75634;SDS011;64227;48.724;9.104;2023-02-15T06:46:34;12.27;;;5.70;;
75634;SDS011;64227;48.724;9.104;2023-02-15T06:49:00;10.07;;;5.20;;
75634;SDS011;64227;48.724;9.104;2023-02-15T06:51:25;11.23;;;5.43;;
75634;SDS011;64227;48.724;9.104;2023-02-15T06:53:50;6.78;;;4.05;;
75634;SDS011;64227;48.724;9.104;2023-02-15T06:56:15;9.40;;;5.13;;
75634;SDS011;64227;48.724;9.104;2023-02-15T06:58:41;8.25;;;4.45;;
75634;SDS011;64227;48.724;9.104;2023-02-15T07:01:07;10.40;;;5.13;;
75634;SDS011;64227;48.724;9.104;2023-02-15T07:03:33;15.45;;;6.03;;
75634;SDS011;64227;48.724;9.104;2023-02-15T07:06:00;12.05;;;5.70;;
75634;SDS011;64227;48.724;9.104;2023-02-15T07:08:26;10.18;;;5.57;;
75634;SDS011;64227;48.724;9.104;2023-02-15T07:10:52;10.73;;;5.50;;
75634;SDS011;64227;48.724;9.104;2023-02-15T07:13:18;9.60;;;5.15;;
75634;SDS011;64227;48.724;9.104;2023-02-15T07:15:44;10.00;;;5.15;;
75634;SDS011;64227;48.724;9.104;2023-02-15T07:18:10;8.52;;;4.60;;
75634;SDS011;64227;48.724;9.104;2023-02-15T07:20:36;10.80;;;5.07;;
75634;SDS011;64227;48.724;9.104;2023-02-15T07:23:02;9.95;;;5.22;;
75634;SDS011;64227;48.724;9.104;2023-02-15T07:25:29;11.05;;;5.35;;
75634;SDS011;64227;48.724;9.104;2023-02-15T07:28:01;9.52;;;4.88;;
75634;SDS011;64227;48.724;9.104;2023-02-15T07:30:27;11.18;;;5.22;;
75634;SDS011;64227;48.724;9.104;2023-02-15T07:32:57;12.07;;;5.60;;
75634;SDS011;64227;48.724;9.104;2023-02-15T07:35:51;12.80;;;5.53;;
75634;SDS011;64227;48.724;9.104;2023-02-15T07:38:25;9.85;;;5.55;;
75634;SDS011;64227;48.724;9.104;2023-02-15T07:40:51;9.20;;;4.70;;
75634;SDS011;64227;48.724;9.104;2023-02-15T07:43:16;11.30;;;5.97;;
75634;SDS011;64227;48.724;9.104;2023-02-15T07:45:42;12.15;;;6.20;;
75634;SDS011;64227;48.724;9.104;2023-02-15T07:48:07;14.75;;;7.20;;
75634;SDS011;64227;48.724;9.104;2023-02-15T07:50:33;11.38;;;5.38;;
75634;SDS011;64227;48.724;9.104;2023-02-15T07:53:00;11.07;;;5.90;;
75634;SDS011;64227;48.724;9.104;2023-02-15T07:55:26;12.63;;;7.20;;
75634;SDS011;64227;48.724;9.104;2023-02-15T07:57:52;11.65;;;6.45;;
75634;SDS011;64227;48.724;9.104;2023-02-15T08:00:19;10.07;;;5.80;;
75634;SDS011;64227;48.724;9.104;2023-02-15T08:02:48;11.32;;;5.97;;
75634;SDS011;64227;48.724;9.104;2023-02-15T08:05:34;11.35;;;6.18;;
75634;SDS011;64227;48.724;9.104;2023-02-15T08:08:00;12.32;;;6.80;;
75634;SDS011;64227;48.724;9.104;2023-02-15T08:10:25;12.07;;;6.97;;
75634;SDS011;64227;48.724;9.104;2023-02-15T08:13:11;16.05;;;8.10;;
75634;SDS011;64227;48.724;9.104;2023-02-15T08:15:36;14.02;;;8.30;;
75634;SDS011;64227;48.724;9.104;2023-02-15T08:18:01;23.80;;;11.77;;
75634;SDS011;64227;48.724;9.104;2023-02-15T08:20:27;15.77;;;8.93;;
75634;SDS011;64227;48.724;9.104;2023-02-15T08:22:52;14.00;;;7.63;;
75634;SDS011;64227;48.724;9.104;2023-02-15T08:25:17;13.30;;;6.65;;
75634;SDS011;64227;48.724;9.104;2023-02-15T08:27:43;12.73;;;7.53;;
75634;SDS011;64227;48.724;9.104;2023-02-15T08:30:08;12.07;;;6.78;;
75634;SDS011;64227;48.724;9.104;2023-02-15T08:32:34;9.13;;;5.70;;
75634;SDS011;64227;48.724;9.104;2023-02-15T08:34:59;15.88;;;8.40;;
75634;SDS011;64227;48.724;9.104;2023-02-15T08:37:24;12.38;;;7.05;;
75634;SDS011;64227;48.724;9.104;2023-02-15T08:39:50;14.57;;;7.93;;
75634;SDS011;64227;48.724;9.104;2023-02-15T08:42:16;10.85;;;6.47;;
75634;SDS011;64227;48.724;9.104;2023-02-15T08:44:42;12.50;;;6.70;;
75634;SDS011;64227;48.724;9.104;2023-02-15T08:47:07;12.05;;;8.40;;
75634;SDS011;64227;48.724;9.104;2023-02-15T08:49:32;12.10;;;7.78;;
75634;SDS011;64227;48.724;9.104;2023-02-15T08:51:57;11.98;;;6.88;;
75634;SDS011;64227;48.724;9.104;2023-02-15T08:54:23;13.98;;;8.07;;
75634;SDS011;64227;48.724;9.104;2023-02-15T08:56:48;12.38;;;8.00;;
75634;SDS011;64227;48.724;9.104;2023-02-15T08:59:15;12.60;;;7.93;;
75634;SDS011;64227;48.724;9.104;2023-02-15T09:01:44;10.65;;;7.60;;
75634;SDS011;64227;48.724;9.104;2023-02-15T09:04:10;12.15;;;7.57;;
75634;SDS011;64227;48.724;9.104;2023-02-15T09:06:38;13.32;;;8.07;;
75634;SDS011;64227;48.724;9.104;2023-02-15T09:09:04;12.98;;;7.55;;
75634;SDS011;64227;48.724;9.104;2023-02-15T09:11:32;12.57;;;8.13;;
75634;SDS011;64227;48.724;9.104;2023-02-15T09:14:19;16.15;;;7.50;;
75634;SDS011;64227;48.724;9.104;2023-02-15T09:16:46;9.65;;;6.85;;
75634;SDS011;64227;48.724;9.104;2023-02-15T09:19:13;16.38;;;8.60;;
75634;SDS011;64227;48.724;9.104;2023-02-15T09:21:40;13.18;;;8.40;;
75634;SDS011;64227;48.724;9.104;2023-02-15T09:24:06;12.82;;;7.38;;
75634;SDS011;64227;48.724;9.104;2023-02-15T09:26:34;10.80;;;7.15;;
75634;SDS011;64227;48.724;9.104;2023-02-15T09:29:02;11.57;;;7.88;;
75634;SDS011;64227;48.724;9.104;2023-02-15T09:31:47;13.68;;;8.88;;
75634;SDS011;64227;48.724;9.104;2023-02-15T09:34:15;13.95;;;8.68;;
75634;SDS011;64227;48.724;9.104;2023-02-15T09:36:42;12.88;;;8.40;;
75634;SDS011;64227;48.724;9.104;2023-02-15T09:39:11;12.10;;;8.32;;
75634;SDS011;64227;48.724;9.104;2023-02-15T09:42:04;12.93;;;7.78;;
75634;SDS011;64227;48.724;9.104;2023-02-15T09:45:00;11.48;;;7.45;;
75634;SDS011;64227;48.724;9.104;2023-02-15T09:47:37;11.23;;;7.32;;
75634;SDS011;64227;48.724;9.104;2023-02-15T10:11:00;12.68;;;7.50;;
75634;SDS011;64227;48.724;9.104;2023-02-15T10:16:40;15.30;;;8.30;;
75634;SDS011;64227;48.724;9.104;2023-02-15T10:19:19;14.60;;;8.43;;
75634;SDS011;64227;48.724;9.104;2023-02-15T10:24:41;11.48;;;7.28;;
75634;SDS011;64227;48.724;9.104;2023-02-15T10:27:15;9.70;;;7.20;;
75634;SDS011;64227;48.724;9.104;2023-02-15T10:29:50;13.85;;;8.27;;
75634;SDS011;64227;48.724;9.104;2023-02-15T10:32:27;12.32;;;7.30;;
75634;SDS011;64227;48.724;9.104;2023-02-15T10:35:05;14.68;;;8.45;;
75634;SDS011;64227;48.724;9.104;2023-02-15T10:38:20;12.23;;;9.25;;
75634;SDS011;64227;48.724;9.104;2023-02-15T10:41:43;16.15;;;7.95;;
75634;SDS011;64227;48.724;9.104;2023-02-15T10:49:17;14.07;;;9.10;;
75634;SDS011;64227;48.724;9.104;2023-02-15T10:57:19;19.77;;;10.40;;
75634;SDS011;64227;48.724;9.104;2023-02-15T11:02:40;16.60;;;10.25;;
75634;SDS011;64227;48.724;9.104;2023-02-15T11:06:03;13.48;;;7.72;;
75634;SDS011;64227;48.724;9.104;2023-02-15T11:08:29;14.68;;;9.07;;
75634;SDS011;64227;48.724;9.104;2023-02-15T11:11:00;14.32;;;9.70;;
75634;SDS011;64227;48.724;9.104;2023-02-15T11:13:31;14.85;;;8.95;;
75634;SDS011;64227;48.724;9.104;2023-02-15T11:16:05;11.35;;;7.72;;
75634;SDS011;64227;48.724;9.104;2023-02-15T11:18:37;14.07;;;8.95;;
75634;SDS011;64227;48.724;9.104;2023-02-15T11:23:41;16.00;;;10.20;;
75634;SDS011;64227;48.724;9.104;2023-02-15T11:26:16;13.52;;;9.07;;
75634;SDS011;64227;48.724;9.104;2023-02-15T11:29:31;11.77;;;8.95;;
75634;SDS011;64227;48.724;9.104;2023-02-15T11:31:46;20.02;;;11.23;;
75634;SDS011;64227;48.724;9.104;2023-02-15T11:34:16;13.38;;;9.52;;
75634;SDS011;64227;48.724;9.104;2023-02-15T11:36:45;14.13;;;9.25;;
75634;SDS011;64227;48.724;9.104;2023-02-15T11:39:15;15.75;;;10.32;;
75634;SDS011;64227;48.724;9.104;2023-02-15T11:41:46;15.27;;;9.90;;
75634;SDS011;64227;48.724;9.104;2023-02-15T11:46:53;16.27;;;9.13;;
75634;SDS011;64227;48.724;9.104;2023-02-15T11:49:29;16.98;;;9.20;;
75634;SDS011;64227;48.724;9.104;2023-02-15T11:51:56;13.68;;;9.38;;
75634;SDS011;64227;48.724;9.104;2023-02-15T11:54:26;16.80;;;8.02;;
75634;SDS011;64227;48.724;9.104;2023-02-15T11:56:55;11.20;;;7.55;;
75634;SDS011;64227;48.724;9.104;2023-02-15T11:59:24;14.73;;;8.27;;
75634;SDS011;64227;48.724;9.104;2023-02-15T12:01:53;8.45;;;6.70;;
75634;SDS011;64227;48.724;9.104;2023-02-15T12:04:23;9.25;;;6.97;;
75634;SDS011;64227;48.724;9.104;2023-02-15T12:06:54;12.48;;;7.22;;
75634;SDS011;64227;48.724;9.104;2023-02-15T12:12:09;9.25;;;7.25;;
75634;SDS011;64227;48.724;9.104;2023-02-15T12:14:50;12.02;;;8.02;;
75634;SDS011;64227;48.724;9.104;2023-02-15T12:17:18;11.85;;;8.35;;
75634;SDS011;64227;48.724;9.104;2023-02-15T12:19:46;11.57;;;7.57;;
75634;SDS011;64227;48.724;9.104;2023-02-15T12:22:25;12.60;;;8.68;;
75634;SDS011;64227;48.724;9.104;2023-02-15T12:25:02;11.57;;;7.90;;
75634;SDS011;64227;48.724;9.104;2023-02-15T12:27:36;9.93;;;6.35;;
75634;SDS011;64227;48.724;9.104;2023-02-15T12:30:18;13.77;;;8.80;;
75634;SDS011;64227;48.724;9.104;2023-02-15T12:32:48;15.25;;;9.18;;
75634;SDS011;64227;48.724;9.104;2023-02-15T12:35:21;14.10;;;9.73;;
75634;SDS011;64227;48.724;9.104;2023-02-15T12:37:54;12.05;;;8.02;;
75634;SDS011;64227;48.724;9.104;2023-02-15T12:40:23;11.98;;;8.95;;
75634;SDS011;64227;48.724;9.104;2023-02-15T12:42:51;13.93;;;9.07;;
75634;SDS011;64227;48.724;9.104;2023-02-15T12:45:24;16.95;;;9.77;;
75634;SDS011;64227;48.724;9.104;2023-02-15T12:48:08;12.52;;;8.57;;
75634;SDS011;64227;48.724;9.104;2023-02-15T12:50:34;13.23;;;9.43;;
75634;SDS011;64227;48.724;9.104;2023-02-15T12:53:33;14.90;;;9.15;;
75634;SDS011;64227;48.724;9.104;2023-02-15T12:55:58;11.45;;;8.32;;
75634;SDS011;64227;48.724;9.104;2023-02-15T12:58:26;12.93;;;9.63;;
75634;SDS011;64227;48.724;9.104;2023-02-15T13:03:33;12.60;;;8.40;;
75634;SDS011;64227;48.724;9.104;2023-02-15T13:05:59;14.48;;;9.32;;
75634;SDS011;64227;48.724;9.104;2023-02-15T13:08:31;13.73;;;8.70;;
75634;SDS011;64227;48.724;9.104;2023-02-15T13:10:59;13.27;;;9.40;;
75634;SDS011;64227;48.724;9.104;2023-02-15T13:13:29;13.63;;;9.93;;
75634;SDS011;64227;48.724;9.104;2023-02-15T13:15:59;13.55;;;8.93;;
75634;SDS011;64227;48.724;9.104;2023-02-15T13:18:29;15.70;;;9.70;;
75634;SDS011;64227;48.724;9.104;2023-02-15T13:20:56;13.95;;;8.88;;
75634;SDS011;64227;48.724;9.104;2023-02-15T13:23:34;13.73;;;8.27;;
75634;SDS011;64227;48.724;9.104;2023-02-15T13:26:00;13.63;;;8.68;;
75634;SDS011;64227;48.724;9.104;2023-02-15T13:28:36;12.07;;;8.45;;
75634;SDS011;64227;48.724;9.104;2023-02-15T13:31:04;11.88;;;8.45;;
75634;SDS011;64227;48.724;9.104;2023-02-15T13:33:37;15.00;;;9.35;;
75634;SDS011;64227;48.724;9.104;2023-02-15T13:36:10;11.63;;;8.57;;
75634;SDS011;64227;48.724;9.104;2023-02-15T13:38:46;12.45;;;8.80;;
75634;SDS011;64227;48.724;9.104;2023-02-15T13:41:46;12.23;;;7.47;;
75634;SDS011;64227;48.724;9.104;2023-02-15T13:46:58;11.75;;;8.00;;
75634;SDS011;64227;48.724;9.104;2023-02-15T13:52:26;12.93;;;8.38;;
75634;SDS011;64227;48.724;9.104;2023-02-15T13:54:56;16.00;;;9.27;;
75634;SDS011;64227;48.724;9.104;2023-02-15T13:57:48;21.13;;;11.80;;
75634;SDS011;64227;48.724;9.104;2023-02-15T14:08:47;12.93;;;7.50;;
75634;SDS011;64227;48.724;9.104;2023-02-15T14:14:45;12.48;;;7.13;;
75634;SDS011;64227;48.724;9.104;2023-02-15T14:17:19;10.80;;;7.43;;
75634;SDS011;64227;48.724;9.104;2023-02-15T14:22:41;10.05;;;6.82;;
75634;SDS011;64227;48.724;9.104;2023-02-15T14:27:54;9.27;;;5.75;;
75634;SDS011;64227;48.724;9.104;2023-02-15T14:30:22;15.18;;;8.10;;
75634;SDS011;64227;48.724;9.104;2023-02-15T14:32:53;9.82;;;6.35;;
75634;SDS011;64227;48.724;9.104;2023-02-15T14:35:24;14.05;;;7.75;;
75634;SDS011;64227;48.724;9.104;2023-02-15T14:37:54;8.55;;;6.22;;
75634;SDS011;64227;48.724;9.104;2023-02-15T14:40:30;8.25;;;6.10;;
75634;SDS011;64227;48.724;9.104;2023-02-15T14:46:21;10.50;;;6.10;;
75634;SDS011;64227;48.724;9.104;2023-02-15T14:48:55;8.80;;;5.10;;
75634;SDS011;64227;48.724;9.104;2023-02-15T14:54:08;10.38;;;5.88;;
75634;SDS011;64227;48.724;9.104;2023-02-15T14:56:34;9.10;;;5.70;;
75634;SDS011;64227;48.724;9.104;2023-02-15T14:59:21;12.25;;;7.32;;
75634;SDS011;64227;48.724;9.104;2023-02-15T15:01:55;8.20;;;5.53;;
75634;SDS011;64227;48.724;9.104;2023-02-15T15:14:42;8.75;;;5.65;;
75634;SDS011;64227;48.724;9.104;2023-02-15T15:17:09;9.95;;;5.88;;
75634;SDS011;64227;48.724;9.104;2023-02-15T15:24:47;11.98;;;6.80;;
75634;SDS011;64227;48.724;9.104;2023-02-15T15:41:04;9.85;;;6.45;;
75634;SDS011;64227;48.724;9.104;2023-02-15T15:43:54;10.40;;;6.03;;
75634;SDS011;64227;48.724;9.104;2023-02-15T15:46:45;10.15;;;6.45;;
75634;SDS011;64227;48.724;9.104;2023-02-15T15:49:16;8.10;;;5.03;;
75634;SDS011;64227;48.724;9.104;2023-02-15T15:51:44;11.80;;;5.82;;
75634;SDS011;64227;48.724;9.104;2023-02-15T15:54:20;10.95;;;6.55;;
75634;SDS011;64227;48.724;9.104;2023-02-15T15:56:54;12.60;;;6.88;;
75634;SDS011;64227;48.724;9.104;2023-02-15T15:59:25;15.90;;;7.40;;
75634;SDS011;64227;48.724;9.104;2023-02-15T16:01:52;10.93;;;6.63;;
75634;SDS011;64227;48.724;9.104;2023-02-15T16:04:29;13.27;;;6.50;;
75634;SDS011;64227;48.724;9.104;2023-02-15T16:07:41;9.45;;;5.68;;
75634;SDS011;64227;48.724;9.104;2023-02-15T16:09:41;10.27;;;5.40;;
75634;SDS011;64227;48.724;9.104;2023-02-15T16:12:38;8.00;;;4.60;;
75634;SDS011;64227;48.724;9.104;2023-02-15T16:15:12;8.82;;;4.93;;
75634;SDS011;64227;48.724;9.104;2023-02-15T16:17:40;7.22;;;4.68;;
75634;SDS011;64227;48.724;9.104;2023-02-15T16:20:15;7.65;;;3.80;;
75634;SDS011;64227;48.724;9.104;2023-02-15T16:22:47;10.38;;;5.40;;
75634;SDS011;64227;48.724;9.104;2023-02-15T16:25:35;8.65;;;4.90;;
75634;SDS011;64227;48.724;9.104;2023-02-15T16:28:23;8.20;;;3.83;;
75634;SDS011;64227;48.724;9.104;2023-02-15T16:33:35;6.53;;;3.25;;
75634;SDS011;64227;48.724;9.104;2023-02-15T16:36:03;6.03;;;4.25;;
75634;SDS011;64227;48.724;9.104;2023-02-15T16:41:07;7.50;;;3.42;;
75634;SDS011;64227;48.724;9.104;2023-02-15T16:43:40;5.78;;;3.30;;
75634;SDS011;64227;48.724;9.104;2023-02-15T16:46:09;6.00;;;3.42;;
75634;SDS011;64227;48.724;9.104;2023-02-15T16:51:03;5.65;;;3.05;;
75634;SDS011;64227;48.724;9.104;2023-02-15T16:53:29;6.13;;;3.33;;
75634;SDS011;64227;48.724;9.104;2023-02-15T16:55:55;6.53;;;3.15;;
75634;SDS011;64227;48.724;9.104;2023-02-15T16:58:26;7.63;;;3.80;;
75634;SDS011;64227;48.724;9.104;2023-02-15T17:01:03;5.72;;;3.33;;
75634;SDS011;64227;48.724;9.104;2023-02-15T17:05:58;5.53;;;2.63;;
75634;SDS011;64227;48.724;9.104;2023-02-15T17:08:34;4.72;;;3.08;;
75634;SDS011;64227;48.724;9.104;2023-02-15T17:11:32;8.70;;;3.83;;
75634;SDS011;64227;48.724;9.104;2023-02-15T17:16:31;8.50;;;4.97;;
75634;SDS011;64227;48.724;9.104;2023-02-15T17:18:59;6.18;;;3.85;;